Time;durP1;ratioP1;P1;durP2;ratioP2;P2;SDS_P1;SDS_P2;PMS_P1;PMS_P2;Temp;Humidity;BMP_temperature;BMP_pressure;BME280_temperature;BME280_humidity;BME280_pressure;Samples;Min_cycle;Max_cycle;Signal;HPM_P1;HPM_P2
2021/08/09 00:00:27;;;;;;;3.30;2.37;;;17.60;99.90;;;;;;4917017;29;20415;-68
2021/08/09 00:02:53;;;;;;;4.17;2.30;;;17.60;99.90;;;;;;4917395;29;21000;-68
2021/08/09 00:05:19;;;;;;;4.03;2.67;;;17.50;99.90;;;;;;4916615;29;20186;-68
2021/08/09 00:07:44;;;;;;;3.50;2.90;;;17.60;99.90;;;;;;4917182;29;20226;-69
2021/08/09 00:10:10;;;;;;;4.67;2.97;;;17.60;99.90;;;;;;4919508;29;20218;-69
2021/08/09 00:12:36;;;;;;;2.90;2.60;;;17.50;99.90;;;;;;4919938;29;20210;-69
2021/08/09 00:15:02;;;;;;;3.20;2.87;;;17.50;99.90;;;;;;4920284;29;20388;-69
2021/08/09 00:17:27;;;;;;;2.90;2.70;;;17.50;99.90;;;;;;4920794;29;20163;-69
2021/08/09 00:19:53;;;;;;;3.77;2.70;;;17.40;99.90;;;;;;4919586;29;20788;-69
2021/08/09 00:22:18;;;;;;;5.00;2.73;;;17.40;99.90;;;;;;4920891;29;20415;-69
2021/08/09 00:24:44;;;;;;;2.70;2.37;;;17.40;99.90;;;;;;4919897;29;20242;-69
2021/08/09 00:27:09;;;;;;;4.57;2.80;;;17.40;99.90;;;;;;4920263;29;20191;-69
2021/08/09 00:29:35;;;;;;;2.97;2.60;;;17.40;99.90;;;;;;4919876;29;20175;-69
2021/08/09 00:32:00;;;;;;;2.60;2.40;;;17.40;99.90;;;;;;4920166;29;20483;-69
2021/08/09 00:34:26;;;;;;;6.07;3.00;;;17.40;99.90;;;;;;4920364;29;20226;-68
2021/08/09 00:36:51;;;;;;;2.33;2.10;;;17.30;99.90;;;;;;4920861;29;20223;-68
2021/08/09 00:39:17;;;;;;;2.83;2.57;;;17.30;99.90;;;;;;4922193;29;20189;-68
2021/08/09 00:41:42;;;;;;;2.53;2.33;;;17.40;99.90;;;;;;4921514;29;20262;-69
2021/08/09 00:44:08;;;;;;;4.70;3.13;;;17.40;99.90;;;;;;4921252;29;20199;-68
2021/08/09 00:46:34;;;;;;;2.57;2.37;;;17.40;99.90;;;;;;4920983;29;20179;-68
2021/08/09 00:48:59;;;;;;;4.43;2.80;;;17.50;99.90;;;;;;4919723;29;20449;-68
2021/08/09 00:51:25;;;;;;;2.63;2.43;;;17.50;99.90;;;;;;4920225;29;20226;-68
2021/08/09 00:53:51;;;;;;;5.20;3.10;;;17.50;99.90;;;;;;4919116;29;20423;-68
2021/08/09 00:56:17;;;;;;;3.03;2.83;;;17.50;99.90;;;;;;4919662;29;20240;-68
2021/08/09 00:58:43;;;;;;;2.70;2.50;;;17.50;99.90;;;;;;4919975;29;20430;-68
2021/08/09 01:01:08;;;;;;;6.60;3.10;;;17.50;99.90;;;;;;4919733;29;20897;-68
2021/08/09 01:03:34;;;;;;;3.30;2.57;;;17.60;99.90;;;;;;4903000;29;20808;-67
2021/08/09 01:05:59;;;;;;;2.33;2.13;;;17.60;99.90;;;;;;4919241;29;20171;-68
2021/08/09 01:08:35;;;;;;;3.23;2.80;;;17.60;99.90;;;;;;4919512;29;20167;-68
2021/08/09 01:11:17;;;;;;;2.87;2.47;;;17.60;99.90;;;;;;4919550;29;20206;-67
2021/08/09 01:13:50;;;;;;;6.47;3.00;;;17.60;99.90;;;;;;4919493;29;20458;-69
2021/08/09 01:16:20;;;;;;;3.00;2.70;;;17.60;99.90;;;;;;4918847;29;20434;-68
2021/08/09 01:18:47;;;;;;;2.70;2.50;;;17.50;99.90;;;;;;4919073;29;20415;-68
2021/08/09 01:21:17;;;;;;;3.80;3.00;;;17.50;99.90;;;;;;4919351;29;20411;-68
2021/08/09 01:24:00;;;;;;;2.53;2.33;;;17.40;99.90;;;;;;4925305;29;20438;-68
2021/08/09 01:27:03;;;;;;;2.83;2.63;;;17.30;99.90;;;;;;4919932;29;20404;-68
2021/08/09 01:29:33;;;;;;;2.93;2.60;;;17.30;99.90;;;;;;4916721;29;20427;-68
2021/08/09 01:32:00;;;;;;;4.07;2.73;;;17.30;99.90;;;;;;4918849;29;20434;-68
2021/08/09 01:34:28;;;;;;;5.30;2.37;;;17.20;99.90;;;;;;4917868;29;20435;-68
2021/08/09 01:36:58;;;;;;;3.00;2.30;;;17.30;99.90;;;;;;4918671;29;20415;-68
2021/08/09 01:39:24;;;;;;;3.27;2.50;;;17.30;99.90;;;;;;4918700;29;20403;-68
2021/08/09 01:41:52;;;;;;;3.30;2.50;;;17.30;99.90;;;;;;4918967;29;20421;-68
2021/08/09 01:44:18;;;;;;;3.40;3.17;;;17.30;99.90;;;;;;4918491;29;20852;-68
2021/08/09 01:46:45;;;;;;;3.30;3.00;;;17.20;99.90;;;;;;4918876;29;20422;-67
2021/08/09 01:49:11;;;;;;;2.30;2.10;;;17.20;99.90;;;;;;4918344;29;20846;-68
2021/08/09 01:51:37;;;;;;;3.30;2.80;;;17.10;99.90;;;;;;4923171;29;20482;-68
2021/08/09 01:54:03;;;;;;;5.83;2.77;;;17.00;99.90;;;;;;4937235;29;20453;-69
2021/08/09 01:56:30;;;;;;;5.13;2.60;;;17.00;99.90;;;;;;4937407;29;20433;-68
2021/08/09 01:58:55;;;;;;;3.10;2.30;;;17.00;99.90;;;;;;4937228;29;20829;-68
2021/08/09 02:01:21;;;;;;;4.37;2.80;;;17.00;99.90;;;;;;4937940;29;20430;-68
2021/08/09 02:03:47;;;;;;;3.50;2.37;;;16.90;99.90;;;;;;4937240;29;20198;-67
2021/08/09 02:06:13;;;;;;;3.83;2.63;;;16.90;99.90;;;;;;4937202;29;20172;-69
2021/08/09 02:08:39;;;;;;;3.13;2.80;;;16.90;99.90;;;;;;4937104;29;20457;-67
2021/08/09 02:11:13;;;;;;;3.70;2.80;;;16.90;99.90;;;;;;4936963;29;20505;-69
2021/08/09 02:13:50;;;;;;;3.97;2.90;;;16.90;99.90;;;;;;4937051;29;20586;-68
2021/08/09 02:16:20;;;;;;;4.20;2.50;;;16.90;99.90;;;;;;4937593;29;20410;-70
2021/08/09 02:19:01;;;;;;;2.87;2.67;;;16.90;99.90;;;;;;4937140;29;20418;-69
2021/08/09 02:21:33;;;;;;;2.90;2.70;;;16.90;99.90;;;;;;4937118;29;20888;-67
2021/08/09 02:24:05;;;;;;;3.10;2.70;;;16.90;99.90;;;;;;4937408;29;20465;-68
2021/08/09 02:26:34;;;;;;;2.87;2.47;;;17.00;99.90;;;;;;4936814;29;20422;-67
2021/08/09 02:29:06;;;;;;;3.33;2.53;;;17.00;99.90;;;;;;4936913;29;20422;-67
2021/08/09 02:31:33;;;;;;;2.83;2.57;;;17.10;99.90;;;;;;4937288;29;20453;-67
2021/08/09 02:34:01;;;;;;;2.53;2.20;;;17.10;99.90;;;;;;4937457;29;20493;-67
2021/08/09 02:36:26;;;;;;;4.00;2.80;;;17.10;99.90;;;;;;4937619;29;20461;-69
2021/08/09 02:38:53;;;;;;;3.77;2.40;;;17.00;99.90;;;;;;4937762;29;20432;-69
2021/08/09 02:41:19;;;;;;;2.97;2.67;;;17.00;99.90;;;;;;4937542;29;20287;-69
2021/08/09 02:43:46;;;;;;;3.80;2.83;;;16.90;99.90;;;;;;4937420;29;20603;-70
2021/08/09 02:46:11;;;;;;;3.97;2.67;;;16.90;99.90;;;;;;4936350;29;20629;-69
2021/08/09 02:48:40;;;;;;;4.40;3.23;;;16.90;99.90;;;;;;4937271;29;20454;-68
2021/08/09 02:51:06;;;;;;;3.50;2.60;;;16.80;99.90;;;;;;4936792;29;20687;-69
2021/08/09 02:53:33;;;;;;;2.73;2.53;;;16.70;99.90;;;;;;4940741;29;20438;-68
2021/08/09 02:56:01;;;;;;;4.97;2.60;;;16.80;99.90;;;;;;4939758;29;20426;-68
2021/08/09 02:58:27;;;;;;;3.13;2.33;;;16.70;99.90;;;;;;4940490;29;20499;-69
2021/08/09 03:00:56;;;;;;;5.87;3.00;;;16.70;99.90;;;;;;4940474;29;20439;-68
2021/08/09 03:03:23;;;;;;;3.10;2.40;;;16.70;99.90;;;;;;4940507;29;20213;-68
2021/08/09 03:05:55;;;;;;;2.90;2.20;;;16.70;99.90;;;;;;4939524;29;20465;-68
2021/08/09 03:08:22;;;;;;;4.60;2.67;;;16.70;99.90;;;;;;4936622;29;20446;-69
2021/08/09 03:10:48;;;;;;;3.10;2.80;;;16.60;99.90;;;;;;4936836;29;20508;-68
2021/08/09 03:13:14;;;;;;;3.30;2.53;;;16.70;99.90;;;;;;4936382;29;20469;-68
2021/08/09 03:15:41;;;;;;;3.23;2.23;;;16.70;99.90;;;;;;4936444;29;20406;-68
2021/08/09 03:18:08;;;;;;;4.10;2.47;;;16.70;99.90;;;;;;4936152;29;20163;-69
2021/08/09 03:20:33;;;;;;;2.87;2.67;;;16.70;99.90;;;;;;4936790;29;20410;-68
2021/08/09 03:22:59;;;;;;;3.97;3.00;;;16.70;99.90;;;;;;4936251;29;20446;-68
2021/08/09 03:25:24;;;;;;;2.93;2.60;;;16.80;99.90;;;;;;4936274;29;20178;-69
2021/08/09 03:27:50;;;;;;;2.40;2.20;;;16.70;99.90;;;;;;4936314;29;20662;-69
2021/08/09 03:30:16;;;;;;;3.17;2.40;;;16.70;99.90;;;;;;4935975;29;20202;-69
2021/08/09 03:32:42;;;;;;;4.30;2.47;;;16.80;99.90;;;;;;4936235;29;20265;-68
2021/08/09 03:35:08;;;;;;;2.90;2.70;;;16.80;99.90;;;;;;4935849;29;20414;-69
2021/08/09 03:37:34;;;;;;;2.67;2.47;;;16.90;99.90;;;;;;4936546;29;20267;-69
2021/08/09 03:39:59;;;;;;;3.53;2.92;;;16.90;99.90;;;;;;4935623;29;20775;-69
2021/08/09 03:42:26;;;;;;;3.20;2.90;;;16.90;99.90;;;;;;4935911;29;20194;-68
2021/08/09 03:44:51;;;;;;;3.40;2.57;;;16.90;99.90;;;;;;4938030;29;20727;-69
2021/08/09 03:47:17;;;;;;;3.87;3.00;;;17.00;99.90;;;;;;4940076;29;20414;-68
2021/08/09 03:49:42;;;;;;;3.20;2.40;;;17.10;99.90;;;;;;4939669;29;20193;-68
2021/08/09 03:52:08;;;;;;;3.53;2.47;;;17.10;99.90;;;;;;4939823;29;20189;-69
2021/08/09 03:54:33;;;;;;;3.23;2.40;;;17.20;99.90;;;;;;4939174;29;20612;-69
2021/08/09 03:56:59;;;;;;;5.23;2.57;;;17.20;99.90;;;;;;4939830;29;20163;-68
2021/08/09 03:59:24;;;;;;;2.67;2.47;;;17.20;99.90;;;;;;4939915;29;20485;-68
2021/08/09 04:01:50;;;;;;;2.90;2.60;;;17.20;99.90;;;;;;4939642;29;20644;-68
2021/08/09 04:04:16;;;;;;;2.50;2.30;;;17.10;99.90;;;;;;4939026;29;20672;-69
2021/08/09 04:06:42;;;;;;;4.20;2.70;;;17.10;99.90;;;;;;4938417;29;20285;-68
2021/08/09 04:09:07;;;;;;;2.97;2.50;;;17.10;99.90;;;;;;4939455;29;20512;-69
2021/08/09 04:11:36;;;;;;;2.63;2.43;;;17.10;99.90;;;;;;4939890;29;20590;-68
2021/08/09 04:14:02;;;;;;;3.87;2.83;;;17.10;99.90;;;;;;4948416;29;20241;-69
2021/08/09 04:16:28;;;;;;;2.43;2.23;;;17.10;99.90;;;;;;4955771;29;20454;-69
2021/08/09 04:18:54;;;;;;;3.40;2.50;;;17.10;99.90;;;;;;4944364;29;20410;-68
2021/08/09 04:21:20;;;;;;;3.00;2.70;;;16.90;99.90;;;;;;4940196;29;20440;-68
2021/08/09 04:23:48;;;;;;;2.63;2.33;;;17.00;99.90;;;;;;4938930;29;20201;-68
2021/08/09 04:26:13;;;;;;;4.97;2.60;;;17.00;99.90;;;;;;4939249;29;20783;-69
2021/08/09 04:28:39;;;;;;;2.70;2.03;;;16.90;99.90;;;;;;4939896;29;20418;-68
2021/08/09 04:31:04;;;;;;;4.07;2.20;;;16.90;99.90;;;;;;4939614;29;20292;-68
2021/08/09 04:33:30;;;;;;;3.03;2.60;;;16.80;99.90;;;;;;4938614;29;20198;-69
2021/08/09 04:35:56;;;;;;;2.60;2.40;;;16.80;99.90;;;;;;4938757;29;20182;-69
2021/08/09 04:38:21;;;;;;;4.43;2.70;;;16.80;99.90;;;;;;4939360;29;20281;-68
2021/08/09 04:40:47;;;;;;;4.10;2.43;;;16.80;99.90;;;;;;4938722;29;20422;-68
2021/08/09 04:43:12;;;;;;;5.07;2.40;;;16.80;99.90;;;;;;4938662;29;20214;-67
2021/08/09 04:45:38;;;;;;;3.27;2.97;;;16.80;99.90;;;;;;4938891;29;20265;-67
2021/08/09 04:48:04;;;;;;;5.67;2.20;;;16.80;99.90;;;;;;4939844;29;20183;-68
2021/08/09 04:50:29;;;;;;;3.40;2.80;;;16.90;99.90;;;;;;4938806;29;20437;-68
2021/08/09 04:52:55;;;;;;;4.23;2.90;;;16.90;99.90;;;;;;4939139;29;20315;-67
2021/08/09 04:55:21;;;;;;;2.50;2.30;;;16.90;99.90;;;;;;4937680;29;20265;-68
2021/08/09 04:57:47;;;;;;;5.07;3.30;;;16.90;99.90;;;;;;4938467;29;20640;-69
2021/08/09 05:00:14;;;;;;;5.97;2.83;;;16.90;99.90;;;;;;4938785;29;20483;-69
2021/08/09 05:02:39;;;;;;;2.70;2.50;;;16.90;99.90;;;;;;4932487;29;20257;-69
2021/08/09 05:05:05;;;;;;;3.00;2.80;;;16.80;99.90;;;;;;4919363;29;20848;-68
2021/08/09 05:07:31;;;;;;;4.10;2.80;;;16.80;99.90;;;;;;4929646;29;20210;-69
2021/08/09 05:09:56;;;;;;;3.10;2.43;;;16.80;99.90;;;;;;4919502;29;20198;-69
2021/08/09 05:12:22;;;;;;;2.63;2.43;;;16.80;99.90;;;;;;4919401;29;20174;-69
2021/08/09 05:14:47;;;;;;;3.00;2.60;;;16.90;99.90;;;;;;4919199;29;20190;-69
2021/08/09 05:17:13;;;;;;;3.30;2.47;;;16.80;99.90;;;;;;4927382;29;20198;-68
2021/08/09 05:19:38;;;;;;;2.70;2.50;;;16.90;99.90;;;;;;4930108;29;20637;-69
2021/08/09 05:22:04;;;;;;;2.70;2.50;;;16.90;99.90;;;;;;4931491;29;20190;-69
2021/08/09 05:24:30;;;;;;;2.90;2.70;;;17.00;99.90;;;;;;4928083;29;20207;-69
2021/08/09 05:26:56;;;;;;;2.73;2.47;;;17.10;99.90;;;;;;4928155;29;20210;-69
2021/08/09 05:29:22;;;;;;;3.73;3.10;;;17.20;99.90;;;;;;4919005;29;20441;-68
2021/08/09 05:31:47;;;;;;;3.10;2.60;;;17.10;99.90;;;;;;4936299;29;20448;-68
2021/08/09 05:34:13;;;;;;;3.20;2.43;;;17.20;99.90;;;;;;4932611;29;20660;-69
2021/08/09 05:36:39;;;;;;;2.80;2.60;;;17.30;99.90;;;;;;4927302;29;20249;-68
2021/08/09 05:39:05;;;;;;;2.63;2.17;;;17.40;99.90;;;;;;4921229;29;20183;-69
2021/08/09 05:41:32;;;;;;;2.13;1.93;;;17.50;99.90;;;;;;4922952;29;20185;-69
2021/08/09 05:43:58;;;;;;;2.60;2.27;;;17.60;99.90;;;;;;4924408;29;20534;-68
2021/08/09 05:46:24;;;;;;;4.70;2.03;;;17.60;99.90;;;;;;4920902;29;20455;-69
2021/08/09 05:48:49;;;;;;;3.50;2.43;;;17.70;99.90;;;;;;4926562;29;20687;-69
2021/08/09 05:51:15;;;;;;;2.00;1.90;;;17.70;99.90;;;;;;4928082;29;20210;-69
2021/08/09 05:53:40;;;;;;;2.43;1.70;;;17.80;99.90;;;;;;4930149;29;20566;-69
2021/08/09 05:56:09;;;;;;;2.60;1.80;;;17.80;99.90;;;;;;4928011;29;20250;-68
2021/08/09 05:58:36;;;;;;;3.13;2.13;;;17.90;99.90;;;;;;4936303;29;20648;-68
2021/08/09 06:01:02;;;;;;;3.93;2.70;;;17.90;99.90;;;;;;4936950;29;20875;-68
2021/08/09 06:03:27;;;;;;;3.73;2.00;;;18.00;99.90;;;;;;4935364;29;20544;-69
2021/08/09 06:05:53;;;;;;;2.33;2.10;;;18.00;99.90;;;;;;4928307;29;20313;-69
2021/08/09 06:08:19;;;;;;;5.50;2.30;;;18.00;99.90;;;;;;4908397;29;20206;-69
2021/08/09 06:10:44;;;;;;;2.90;2.70;;;18.10;99.90;;;;;;4936274;29;20529;-69
2021/08/09 06:13:10;;;;;;;4.00;2.33;;;18.10;99.90;;;;;;4936380;29;20217;-69
2021/08/09 06:15:36;;;;;;;3.90;2.43;;;18.20;99.90;;;;;;4928261;29;20273;-69
2021/08/09 06:18:01;;;;;;;2.40;2.27;;;18.20;99.90;;;;;;4927709;29;20190;-70
2021/08/09 06:20:27;;;;;;;2.47;2.13;;;18.20;99.90;;;;;;4918040;29;20875;-69
2021/08/09 06:22:52;;;;;;;2.50;2.30;;;18.20;99.90;;;;;;4926288;29;20620;-69
2021/08/09 06:25:18;;;;;;;2.30;2.07;;;18.20;99.90;;;;;;4913173;29;20224;-70
2021/08/09 06:27:44;;;;;;;3.53;2.20;;;18.20;99.90;;;;;;4925820;29;20190;-68
2021/08/09 06:30:11;;;;;;;3.13;2.33;;;18.30;99.90;;;;;;4926952;29;20314;-69
2021/08/09 06:32:36;;;;;;;3.30;2.00;;;18.30;99.90;;;;;;4932126;29;20463;-70
2021/08/09 06:35:04;;;;;;;2.95;2.33;;;18.30;99.90;;;;;;4901895;29;20493;-69
2021/08/09 06:37:29;;;;;;;3.13;2.00;;;18.30;99.90;;;;;;4929933;29;20182;-69
2021/08/09 06:39:55;;;;;;;2.50;2.27;;;18.40;99.90;;;;;;4915746;29;20462;-67
2021/08/09 06:42:20;;;;;;;2.30;2.10;;;18.40;99.90;;;;;;4926156;29;20179;-69
2021/08/09 06:44:46;;;;;;;4.67;2.47;;;18.50;99.90;;;;;;4915782;29;20190;-69
2021/08/09 06:47:12;;;;;;;2.13;1.93;;;18.50;99.90;;;;;;4917229;29;20212;-69
2021/08/09 06:49:37;;;;;;;3.20;1.97;;;18.50;99.90;;;;;;4918084;29;20683;-68
2021/08/09 06:52:04;;;;;;;2.10;1.90;;;18.60;99.90;;;;;;4917225;29;20194;-68
2021/08/09 06:54:30;;;;;;;1.70;1.60;;;18.60;99.90;;;;;;4918866;29;20191;-68
2021/08/09 06:56:56;;;;;;;3.33;2.10;;;18.60;99.90;;;;;;4936510;29;20415;-68
2021/08/09 06:59:21;;;;;;;3.90;1.90;;;18.70;99.90;;;;;;4919866;29;20434;-68
2021/08/09 07:01:47;;;;;;;3.20;2.40;;;18.70;99.90;;;;;;4917955;29;20545;-68
2021/08/09 07:04:13;;;;;;;2.43;2.23;;;18.80;99.90;;;;;;4917041;29;20207;-69
2021/08/09 07:06:38;;;;;;;2.27;1.87;;;18.80;99.90;;;;;;4917331;29;20185;-69
2021/08/09 07:09:04;;;;;;;1.97;1.87;;;18.80;99.90;;;;;;4916568;29;20183;-69
2021/08/09 07:11:30;;;;;;;2.38;2.17;;;18.90;99.90;;;;;;4916349;29;20530;-69
2021/08/09 07:13:56;;;;;;;2.77;2.23;;;18.90;99.90;;;;;;4918634;29;20217;-69
2021/08/09 07:16:25;;;;;;;3.80;2.10;;;19.00;99.90;;;;;;4916265;29;20761;-69
2021/08/09 07:18:51;;;;;;;2.30;2.10;;;19.10;99.90;;;;;;4919370;29;20668;-69
2021/08/09 07:21:17;;;;;;;3.97;1.90;;;19.20;99.90;;;;;;4924961;29;20448;-69
2021/08/09 07:23:43;;;;;;;3.67;2.07;;;19.20;99.90;;;;;;4938054;29;20438;-68
2021/08/09 07:26:09;;;;;;;3.50;1.97;;;19.30;99.90;;;;;;4922141;29;20217;-70
2021/08/09 07:28:34;;;;;;;2.80;1.93;;;19.30;99.90;;;;;;4923925;29;20182;-71
2021/08/09 07:31:00;;;;;;;2.80;2.60;;;19.30;99.90;;;;;;4923896;29;20457;-71
2021/08/09 07:33:26;;;;;;;3.67;2.03;;;19.30;99.90;;;;;;4923746;29;20197;-70
2021/08/09 07:35:52;;;;;;;3.40;2.20;;;19.20;99.90;;;;;;4937438;29;20277;-70
2021/08/09 07:38:18;;;;;;;3.70;2.30;;;19.10;99.90;;;;;;4942800;29;20496;-70
2021/08/09 07:40:43;;;;;;;4.40;2.07;;;19.00;99.90;;;;;;4944287;29;20614;-70
2021/08/09 07:43:09;;;;;;;3.97;2.00;;;19.00;99.90;;;;;;4946876;29;20202;-69
2021/08/09 07:45:34;;;;;;;2.00;1.90;;;19.10;99.90;;;;;;4942767;29;20554;-69
2021/08/09 07:48:02;;;;;;;2.93;2.10;;;19.10;99.90;;;;;;4929080;29;20175;-70
2021/08/09 07:50:28;;;;;;;3.80;2.27;;;19.20;99.90;;;;;;4926253;29;20663;-70
2021/08/09 07:52:53;;;;;;;4.17;3.07;;;19.20;99.90;;;;;;4932049;29;20486;-70
2021/08/09 07:55:19;;;;;;;3.40;2.47;;;19.20;99.90;;;;;;4924964;29;20175;-70
2021/08/09 07:57:44;;;;;;;4.77;2.20;;;19.30;99.90;;;;;;4941758;29;20253;-70
2021/08/09 08:00:11;;;;;;;3.67;2.20;;;19.30;99.90;;;;;;4929134;29;20223;-69
2021/08/09 08:02:36;;;;;;;3.43;1.97;;;19.40;99.90;;;;;;4925456;29;20210;-70
2021/08/09 08:05:03;;;;;;;2.50;1.67;;;19.40;99.90;;;;;;4924614;29;20407;-70
2021/08/09 08:07:28;;;;;;;4.77;1.90;;;19.40;99.90;;;;;;4928739;29;20197;-70
2021/08/09 08:09:54;;;;;;;4.10;1.80;;;19.40;99.90;;;;;;4942227;29;20410;-70
2021/08/09 08:12:19;;;;;;;1.80;1.70;;;19.50;99.90;;;;;;4942184;29;20613;-70
2021/08/09 08:14:45;;;;;;;2.20;1.73;;;19.50;99.90;;;;;;4942071;29;20155;-69
2021/08/09 08:17:11;;;;;;;2.43;2.13;;;19.60;99.90;;;;;;4937506;29;20198;-69
2021/08/09 08:19:36;;;;;;;3.25;2.30;;;19.60;99.90;;;;;;4906318;29;20470;-70
2021/08/09 08:22:02;;;;;;;2.70;1.90;;;19.70;99.90;;;;;;4923987;29;20190;-71
2021/08/09 08:24:28;;;;;;;3.10;1.83;;;19.80;99.90;;;;;;4928733;29;20281;-71
2021/08/09 08:26:54;;;;;;;6.37;2.40;;;20.00;99.90;;;;;;4944836;29;20520;-69
2021/08/09 08:29:20;;;;;;;2.47;2.07;;;20.10;99.90;;;;;;4942998;29;20223;-69
2021/08/09 08:31:46;;;;;;;5.00;2.07;;;20.20;99.90;;;;;;4941356;29;20509;-69
2021/08/09 08:34:11;;;;;;;2.30;2.10;;;20.40;99.90;;;;;;4938891;29;20269;-71
2021/08/09 08:36:38;;;;;;;2.90;2.10;;;20.50;99.90;;;;;;4939753;29;20702;-68
2021/08/09 08:39:04;;;;;;;2.20;2.00;;;20.30;99.90;;;;;;4936955;29;20174;-69
2021/08/09 08:41:31;;;;;;;2.70;2.50;;;20.40;99.90;;;;;;4928517;29;20430;-69
2021/08/09 08:43:57;;;;;;;2.87;2.40;;;20.40;99.90;;;;;;4930440;29;20462;-69
2021/08/09 08:46:23;;;;;;;3.13;2.80;;;20.40;99.90;;;;;;4907905;29;21713;-71
2021/08/09 08:48:51;;;;;;;3.13;2.40;;;20.50;99.90;;;;;;4919470;29;20183;-70
2021/08/09 08:51:21;;;;;;;5.17;2.67;;;20.50;99.90;;;;;;4932397;29;20470;-70
2021/08/09 08:53:48;;;;;;;3.80;2.40;;;20.60;99.90;;;;;;4933432;29;20421;-70
2021/08/09 08:56:14;;;;;;;4.37;2.00;;;20.60;99.90;;;;;;4925197;29;21014;-70
2021/08/09 08:58:39;;;;;;;4.43;2.20;;;20.60;99.90;;;;;;4925187;29;20428;-72
2021/08/09 09:01:05;;;;;;;2.97;2.20;;;20.30;99.90;;;;;;4927935;29;20602;-70
2021/08/09 09:03:38;;;;;;;5.60;2.40;;;20.40;99.90;;;;;;4934025;29;20208;-70
2021/08/09 09:06:06;;;;;;;3.50;2.63;;;20.40;99.90;;;;;;4930457;29;20585;-70
2021/08/09 09:08:38;;;;;;;5.53;2.40;;;20.40;99.90;;;;;;4933179;29;20494;-72
2021/08/09 09:11:05;;;;;;;4.53;2.50;;;20.40;99.90;;;;;;4933416;29;20863;-70
2021/08/09 09:13:31;;;;;;;2.10;1.90;;;20.40;99.90;;;;;;4933586;29;20458;-71
2021/08/09 09:16:10;;;;;;;2.40;2.20;;;20.50;99.90;;;;;;4933187;29;20477;-70
2021/08/09 09:18:53;;;;;;;5.23;2.70;;;20.50;99.90;;;;;;4915372;29;20201;-70
2021/08/09 09:21:33;;;;;;;5.27;2.73;;;20.60;99.90;;;;;;4915229;29;20490;-72
2021/08/09 09:24:17;;;;;;;3.23;2.23;;;20.70;99.90;;;;;;4914422;29;20482;-71
2021/08/09 09:26:44;;;;;;;6.13;2.37;;;20.70;99.90;;;;;;4913856;29;20474;-71
2021/08/09 09:29:16;;;;;;;4.23;2.30;;;20.70;99.90;;;;;;4933717;29;20453;-70
2021/08/09 09:31:44;;;;;;;4.23;2.07;;;20.70;99.90;;;;;;4935141;29;20496;-70
2021/08/09 09:34:12;;;;;;;5.03;2.27;;;20.80;99.90;;;;;;4933122;29;20426;-70
2021/08/09 09:36:55;;;;;;;2.30;2.10;;;20.80;99.90;;;;;;4933486;29;20889;-70
2021/08/09 09:39:30;;;;;;;2.97;2.40;;;21.00;99.90;;;;;;4918131;29;20872;-70
2021/08/09 09:41:57;;;;;;;3.70;2.60;;;21.10;99.90;;;;;;4916667;29;20426;-71
2021/08/09 09:44:24;;;;;;;2.90;2.33;;;21.20;99.90;;;;;;4951712;28;20436;-71
2021/08/09 09:46:50;;;;;;;4.43;2.90;;;21.30;99.90;;;;;;4952703;29;20508;-71
2021/08/09 09:49:32;;;;;;;3.63;2.27;;;21.20;99.90;;;;;;4914776;29;20530;-72
2021/08/09 09:51:58;;;;;;;2.63;1.93;;;21.30;99.90;;;;;;4926659;29;20209;-71
2021/08/09 09:54:25;;;;;;;3.53;2.50;;;21.10;99.90;;;;;;4932033;29;20541;-71
2021/08/09 09:56:50;;;;;;;6.20;2.80;;;21.10;99.90;;;;;;4933073;29;20398;-69
2021/08/09 09:59:17;;;;;;;5.10;2.40;;;20.90;99.90;;;;;;4925374;29;20521;-71
2021/08/09 10:01:43;;;;;;;2.50;2.17;;;20.90;99.90;;;;;;4919995;29;20551;-71
2021/08/09 10:04:09;;;;;;;4.57;2.37;;;20.80;99.90;;;;;;4915941;29;20529;-71
2021/08/09 10:06:37;;;;;;;3.40;2.00;;;20.80;99.90;;;;;;4932093;29;20518;-70
2021/08/09 10:09:05;;;;;;;4.70;2.03;;;20.80;99.90;;;;;;4933991;29;20667;-71
2021/08/09 10:11:31;;;;;;;4.10;2.33;;;20.80;99.90;;;;;;4898885;29;20474;-70
2021/08/09 10:13:59;;;;;;;3.60;2.27;;;21.00;99.90;;;;;;4914272;29;20481;-70
2021/08/09 10:16:32;;;;;;;2.10;1.80;;;21.20;99.90;;;;;;4913440;29;20415;-71
2021/08/09 10:18:59;;;;;;;2.80;2.30;;;21.40;99.90;;;;;;4917785;29;20469;-71
2021/08/09 10:21:30;;;;;;;4.90;2.00;;;21.40;99.90;;;;;;4921985;29;20798;-71
2021/08/09 10:23:55;;;;;;;3.00;1.80;;;21.40;99.90;;;;;;4914570;29;20442;-70
2021/08/09 10:26:27;;;;;;;2.70;2.10;;;21.50;99.90;;;;;;4913249;29;20411;-69
2021/08/09 10:28:53;;;;;;;2.30;1.83;;;21.50;99.50;;;;;;4914953;29;20178;-71
2021/08/09 10:31:35;;;;;;;5.87;2.10;;;21.60;99.60;;;;;;4917276;29;20462;-71
2021/08/09 10:34:06;;;;;;;3.60;2.20;;;21.50;98.90;;;;;;4933692;29;20209;-72
2021/08/09 10:37:07;;;;;;;5.73;2.40;;;21.70;98.80;;;;;;4951227;29;20484;-71
2021/08/09 10:39:55;;;;;;;2.80;1.80;;;21.70;98.00;;;;;;4941875;29;20422;-70
2021/08/09 10:42:39;;;;;;;2.50;1.60;;;21.60;97.80;;;;;;4912979;29;21225;-70
2021/08/09 10:45:34;;;;;;;4.20;2.20;;;21.50;97.40;;;;;;4912339;29;20434;-70
2021/08/09 10:48:01;;;;;;;3.50;2.03;;;21.30;97.60;;;;;;4912919;29;20423;-71
2021/08/09 10:50:26;;;;;;;2.30;2.00;;;21.20;97.30;;;;;;4918781;29;20659;-72
2021/08/09 10:52:53;;;;;;;2.10;1.90;;;21.30;98.10;;;;;;4924837;29;20546;-70
2021/08/09 10:55:31;;;;;;;3.43;2.10;;;21.10;97.00;;;;;;4915175;29;20183;-70
2021/08/09 10:57:58;;;;;;;2.10;1.60;;;21.10;96.60;;;;;;4936939;29;20410;-70
2021/08/09 11:00:53;;;;;;;1.87;1.47;;;21.10;96.20;;;;;;4918291;29;20526;-69
2021/08/09 11:03:20;;;;;;;3.93;1.60;;;21.10;96.10;;;;;;4923703;29;20449;-71
2021/08/09 11:05:46;;;;;;;2.27;1.60;;;21.10;96.40;;;;;;4921696;29;20492;-71
2021/08/09 11:08:18;;;;;;;4.07;1.60;;;21.00;96.60;;;;;;4929141;29;20438;-71
2021/08/09 11:11:00;;;;;;;2.37;1.63;;;21.00;96.80;;;;;;4921829;29;20561;-69
2021/08/09 11:13:27;;;;;;;3.30;2.10;;;21.10;97.00;;;;;;4913741;29;20470;-71
2021/08/09 11:15:57;;;;;;;2.40;1.70;;;21.20;96.70;;;;;;4920460;29;20431;-70
2021/08/09 11:18:23;;;;;;;3.00;1.90;;;21.30;96.50;;;;;;4906122;29;20438;-71
2021/08/09 11:21:07;;;;;;;2.33;1.77;;;21.30;96.60;;;;;;4921249;29;20454;-71
2021/08/09 11:23:58;;;;;;;3.70;2.17;;;21.40;96.60;;;;;;4930229;29;20820;-71
2021/08/09 11:26:26;;;;;;;3.50;1.97;;;21.50;96.30;;;;;;4919152;29;20449;-72
2021/08/09 11:28:57;;;;;;;2.10;1.80;;;21.40;96.20;;;;;;4923745;29;20951;-71
2021/08/09 11:31:23;;;;;;;3.07;2.03;;;21.40;96.10;;;;;;4920494;29;20524;-70
2021/08/09 11:33:48;;;;;;;4.07;1.97;;;21.30;95.70;;;;;;4919448;29;20477;-69
2021/08/09 11:36:15;;;;;;;2.83;1.80;;;21.20;95.90;;;;;;4912544;29;20183;-71
2021/08/09 11:38:48;;;;;;;3.13;1.80;;;21.40;96.20;;;;;;4913835;29;20509;-70
2021/08/09 11:41:28;;;;;;;4.05;2.50;;;21.60;96.10;;;;;;4912154;29;20474;-70
2021/08/09 11:44:03;;;;;;;3.33;1.67;;;21.70;95.90;;;;;;4912484;29;20210;-70
2021/08/09 11:46:29;;;;;;;3.70;1.90;;;21.80;95.60;;;;;;4912234;29;20889;-71
2021/08/09 11:48:55;;;;;;;3.70;2.30;;;21.80;95.40;;;;;;4899468;29;20458;-70
2021/08/09 11:51:20;;;;;;;4.27;2.00;;;21.90;95.50;;;;;;4912205;29;20588;-71
2021/08/09 11:53:49;;;;;;;2.93;1.87;;;22.00;95.30;;;;;;4912245;29;20195;-70
2021/08/09 11:56:19;;;;;;;4.17;1.90;;;22.00;95.40;;;;;;4927415;29;20194;-69
2021/08/09 11:58:45;;;;;;;4.07;2.43;;;22.10;95.30;;;;;;4929477;29;20426;-71
2021/08/09 12:01:36;;;;;;;2.70;1.70;;;22.10;95.10;;;;;;4910983;29;21282;-71
2021/08/09 12:04:14;;;;;;;2.40;1.90;;;21.90;95.00;;;;;;4911617;29;21028;-70
2021/08/09 12:06:58;;;;;;;3.27;1.83;;;22.10;95.30;;;;;;4914475;29;20407;-70
2021/08/09 12:09:42;;;;;;;2.07;1.70;;;22.00;94.70;;;;;;4924110;29;20434;-70
2021/08/09 12:12:13;;;;;;;2.70;1.87;;;21.90;94.20;;;;;;4915448;29;20544;-71
2021/08/09 12:14:39;;;;;;;10.77;2.80;;;21.90;94.30;;;;;;4915782;29;20771;-70
2021/08/09 12:17:17;;;;;;;4.80;2.60;;;21.90;93.70;;;;;;4915803;29;20454;-70
2021/08/09 12:19:53;;;;;;;3.33;2.33;;;21.80;93.50;;;;;;4932815;29;20441;-71
2021/08/09 12:22:29;;;;;;;7.90;2.57;;;21.70;93.70;;;;;;4915796;29;20402;-70
2021/08/09 12:25:00;;;;;;;7.73;2.00;;;21.80;93.90;;;;;;4915605;29;20784;-70
2021/08/09 12:27:26;;;;;;;3.77;1.70;;;21.80;94.10;;;;;;4930978;29;20453;-70
2021/08/09 12:30:04;;;;;;;2.20;1.90;;;21.80;94.30;;;;;;4934802;29;20950;-71
2021/08/09 12:32:30;;;;;;;2.30;1.70;;;21.80;94.30;;;;;;4932081;29;20705;-71
2021/08/09 12:34:56;;;;;;;3.97;1.70;;;21.90;94.50;;;;;;4915962;29;20442;-72
2021/08/09 12:37:22;;;;;;;5.50;1.90;;;21.80;94.30;;;;;;4930177;29;20430;-70
2021/08/09 12:39:48;;;;;;;4.28;2.10;;;21.80;94.30;;;;;;4933172;29;20439;-71
2021/08/09 12:42:19;;;;;;;1.53;1.37;;;21.80;94.30;;;;;;4926853;29;20193;-71
2021/08/09 12:44:47;;;;;;;3.77;1.80;;;21.70;94.50;;;;;;4933458;29;20186;-71
2021/08/09 12:47:14;;;;;;;1.70;1.37;;;21.70;95.00;;;;;;4932876;29;20430;-71
2021/08/09 12:49:39;;;;;;;3.23;2.10;;;21.70;95.00;;;;;;4933562;29;20425;-71
2021/08/09 12:52:05;;;;;;;3.03;1.83;;;21.70;95.10;;;;;;4931867;29;20476;-71